sensor_id;sensor_type;location;lat;lon;timestamp;P1;durP1;ratioP1;P2;durP2;ratioP2
59585;SDS011;45408;52.686;7.310;2024-03-07T00:02:33;24.75;;;13.90;;
59585;SDS011;45408;52.686;7.310;2024-03-07T00:05:00;26.48;;;14.98;;
59585;SDS011;45408;52.686;7.310;2024-03-07T00:07:27;25.08;;;14.40;;
59585;SDS011;45408;52.686;7.310;2024-03-07T00:09:53;26.95;;;14.35;;
59585;SDS011;45408;52.686;7.310;2024-03-07T00:12:22;26.60;;;15.23;;
59585;SDS011;45408;52.686;7.310;2024-03-07T00:14:49;32.40;;;14.65;;
59585;SDS011;45408;52.686;7.310;2024-03-07T00:17:15;25.83;;;14.35;;
59585;SDS011;45408;52.686;7.310;2024-03-07T00:19:42;25.33;;;13.85;;
59585;SDS011;45408;52.686;7.310;2024-03-07T00:22:11;25.98;;;13.73;;
59585;SDS011;45408;52.686;7.310;2024-03-07T00:24:37;28.40;;;15.90;;
59585;SDS011;45408;52.686;7.310;2024-03-07T00:27:04;25.52;;;14.30;;
59585;SDS011;45408;52.686;7.310;2024-03-07T00:29:31;23.67;;;13.95;;
59585;SDS011;45408;52.686;7.310;2024-03-07T00:31:57;25.20;;;14.15;;
59585;SDS011;45408;52.686;7.310;2024-03-07T00:34:25;28.40;;;15.40;;
59585;SDS011;45408;52.686;7.310;2024-03-07T00:36:52;24.60;;;13.52;;
59585;SDS011;45408;52.686;7.310;2024-03-07T00:39:19;27.23;;;14.10;;
59585;SDS011;45408;52.686;7.310;2024-03-07T00:41:46;24.30;;;13.63;;
59585;SDS011;45408;52.686;7.310;2024-03-07T00:44:13;28.80;;;13.43;;
59585;SDS011;45408;52.686;7.310;2024-03-07T00:46:39;26.80;;;14.18;;
59585;SDS011;45408;52.686;7.310;2024-03-07T00:49:06;27.48;;;13.27;;
59585;SDS011;45408;52.686;7.310;2024-03-07T00:51:32;25.27;;;13.30;;
59585;SDS011;45408;52.686;7.310;2024-03-07T00:53:59;27.35;;;14.15;;
59585;SDS011;45408;52.686;7.310;2024-03-07T00:56:26;24.98;;;14.18;;
59585;SDS011;45408;52.686;7.310;2024-03-07T00:58:52;24.15;;;12.95;;
59585;SDS011;45408;52.686;7.310;2024-03-07T01:01:19;24.92;;;13.32;;
59585;SDS011;45408;52.686;7.310;2024-03-07T01:03:45;24.30;;;13.25;;
59585;SDS011;45408;52.686;7.310;2024-03-07T01:06:12;21.55;;;12.75;;
59585;SDS011;45408;52.686;7.310;2024-03-07T01:08:39;25.55;;;13.73;;
59585;SDS011;45408;52.686;7.310;2024-03-07T01:11:06;24.27;;;13.10;;
59585;SDS011;45408;52.686;7.310;2024-03-07T01:13:36;24.00;;;13.52;;
59585;SDS011;45408;52.686;7.310;2024-03-07T01:16:03;29.88;;;14.40;;
59585;SDS011;45408;52.686;7.310;2024-03-07T01:18:29;25.48;;;14.32;;
59585;SDS011;45408;52.686;7.310;2024-03-07T01:20:57;24.20;;;12.93;;
59585;SDS011;45408;52.686;7.310;2024-03-07T01:23:24;24.65;;;13.55;;
59585;SDS011;45408;52.686;7.310;2024-03-07T01:25:50;21.70;;;12.75;;
59585;SDS011;45408;52.686;7.310;2024-03-07T01:28:17;24.10;;;13.68;;
59585;SDS011;45408;52.686;7.310;2024-03-07T01:30:44;24.63;;;14.18;;
59585;SDS011;45408;52.686;7.310;2024-03-07T01:33:11;23.20;;;14.30;;
59585;SDS011;45408;52.686;7.310;2024-03-07T01:35:37;25.23;;;13.68;;
59585;SDS011;45408;52.686;7.310;2024-03-07T01:38:04;23.08;;;13.63;;
59585;SDS011;45408;52.686;7.310;2024-03-07T01:40:30;24.25;;;13.68;;
59585;SDS011;45408;52.686;7.310;2024-03-07T01:42:57;22.02;;;13.07;;
59585;SDS011;45408;52.686;7.310;2024-03-07T01:45:23;25.75;;;13.80;;
59585;SDS011;45408;52.686;7.310;2024-03-07T01:47:50;24.70;;;13.77;;
59585;SDS011;45408;52.686;7.310;2024-03-07T01:50:16;22.52;;;12.77;;
59585;SDS011;45408;52.686;7.310;2024-03-07T01:52:44;22.80;;;13.57;;
59585;SDS011;45408;52.686;7.310;2024-03-07T01:55:11;26.77;;;13.15;;
59585;SDS011;45408;52.686;7.310;2024-03-07T01:57:39;25.65;;;15.07;;
59585;SDS011;45408;52.686;7.310;2024-03-07T02:00:05;23.00;;;13.93;;
59585;SDS011;45408;52.686;7.310;2024-03-07T02:02:33;22.05;;;12.90;;
59585;SDS011;45408;52.686;7.310;2024-03-07T02:05:00;23.35;;;12.70;;
59585;SDS011;45408;52.686;7.310;2024-03-07T02:07:27;21.33;;;12.80;;
59585;SDS011;45408;52.686;7.310;2024-03-07T02:10:00;27.35;;;13.85;;
59585;SDS011;45408;52.686;7.310;2024-03-07T02:12:27;23.15;;;12.55;;
59585;SDS011;45408;52.686;7.310;2024-03-07T02:14:56;23.40;;;12.90;;
59585;SDS011;45408;52.686;7.310;2024-03-07T02:17:24;23.30;;;12.70;;
59585;SDS011;45408;52.686;7.310;2024-03-07T02:19:53;25.13;;;12.75;;
59585;SDS011;45408;52.686;7.310;2024-03-07T02:22:19;28.48;;;12.77;;
59585;SDS011;45408;52.686;7.310;2024-03-07T02:24:46;23.10;;;12.63;;
59585;SDS011;45408;52.686;7.310;2024-03-07T02:27:13;24.10;;;13.40;;
59585;SDS011;45408;52.686;7.310;2024-03-07T02:29:42;22.50;;;12.55;;
59585;SDS011;45408;52.686;7.310;2024-03-07T02:32:09;19.92;;;12.48;;
59585;SDS011;45408;52.686;7.310;2024-03-07T02:34:36;23.27;;;12.52;;
59585;SDS011;45408;52.686;7.310;2024-03-07T02:37:02;25.15;;;13.48;;
59585;SDS011;45408;52.686;7.310;2024-03-07T02:39:29;22.55;;;13.20;;
59585;SDS011;45408;52.686;7.310;2024-03-07T02:41:56;21.60;;;13.18;;
59585;SDS011;45408;52.686;7.310;2024-03-07T02:44:22;25.13;;;14.10;;
59585;SDS011;45408;52.686;7.310;2024-03-07T02:46:49;24.17;;;14.30;;
59585;SDS011;45408;52.686;7.310;2024-03-07T02:49:15;25.48;;;13.30;;
59585;SDS011;45408;52.686;7.310;2024-03-07T02:51:42;23.95;;;12.98;;
59585;SDS011;45408;52.686;7.310;2024-03-07T02:54:08;26.52;;;12.70;;
59585;SDS011;45408;52.686;7.310;2024-03-07T02:56:35;22.55;;;12.13;;
59585;SDS011;45408;52.686;7.310;2024-03-07T02:59:01;21.48;;;12.15;;
59585;SDS011;45408;52.686;7.310;2024-03-07T03:01:30;17.48;;;11.27;;
59585;SDS011;45408;52.686;7.310;2024-03-07T03:03:57;18.50;;;11.65;;
59585;SDS011;45408;52.686;7.310;2024-03-07T03:06:23;21.92;;;11.48;;
59585;SDS011;45408;52.686;7.310;2024-03-07T03:08:50;22.25;;;11.00;;
59585;SDS011;45408;52.686;7.310;2024-03-07T03:11:16;16.98;;;10.15;;
59585;SDS011;45408;52.686;7.310;2024-03-07T03:13:43;19.73;;;10.70;;
59585;SDS011;45408;52.686;7.310;2024-03-07T03:16:10;16.40;;;10.07;;
59585;SDS011;45408;52.686;7.310;2024-03-07T03:18:36;19.27;;;10.45;;
59585;SDS011;45408;52.686;7.310;2024-03-07T03:21:03;15.85;;;10.02;;
59585;SDS011;45408;52.686;7.310;2024-03-07T03:23:30;16.08;;;10.13;;
59585;SDS011;45408;52.686;7.310;2024-03-07T03:25:57;20.17;;;10.30;;
59585;SDS011;45408;52.686;7.310;2024-03-07T03:28:23;18.63;;;11.10;;
59585;SDS011;45408;52.686;7.310;2024-03-07T03:30:50;15.30;;;9.85;;
59585;SDS011;45408;52.686;7.310;2024-03-07T03:33:19;19.35;;;10.45;;
59585;SDS011;45408;52.686;7.310;2024-03-07T03:35:47;24.65;;;10.50;;
59585;SDS011;45408;52.686;7.310;2024-03-07T03:38:13;17.88;;;10.68;;
59585;SDS011;45408;52.686;7.310;2024-03-07T03:40:40;18.58;;;10.13;;
59585;SDS011;45408;52.686;7.310;2024-03-07T03:43:07;19.60;;;10.18;;
59585;SDS011;45408;52.686;7.310;2024-03-07T03:45:33;16.05;;;9.85;;
59585;SDS011;45408;52.686;7.310;2024-03-07T03:48:00;19.00;;;10.30;;
59585;SDS011;45408;52.686;7.310;2024-03-07T03:50:27;18.42;;;10.10;;
59585;SDS011;45408;52.686;7.310;2024-03-07T03:52:55;17.77;;;10.50;;
59585;SDS011;45408;52.686;7.310;2024-03-07T03:55:23;16.95;;;9.77;;
59585;SDS011;45408;52.686;7.310;2024-03-07T03:57:49;15.57;;;9.50;;
59585;SDS011;45408;52.686;7.310;2024-03-07T04:00:16;16.55;;;9.70;;
59585;SDS011;45408;52.686;7.310;2024-03-07T04:02:44;17.08;;;9.23;;
59585;SDS011;45408;52.686;7.310;2024-03-07T04:05:16;16.35;;;10.15;;
59585;SDS011;45408;52.686;7.310;2024-03-07T04:07:43;22.48;;;10.38;;
59585;SDS011;45408;52.686;7.310;2024-03-07T04:10:11;17.80;;;9.95;;
59585;SDS011;45408;52.686;7.310;2024-03-07T04:12:39;20.73;;;9.73;;
59585;SDS011;45408;52.686;7.310;2024-03-07T04:15:06;17.48;;;9.95;;
59585;SDS011;45408;52.686;7.310;2024-03-07T04:17:34;17.35;;;10.23;;
59585;SDS011;45408;52.686;7.310;2024-03-07T04:20:02;20.10;;;11.23;;
59585;SDS011;45408;52.686;7.310;2024-03-07T04:22:35;16.20;;;9.32;;
59585;SDS011;45408;52.686;7.310;2024-03-07T04:25:01;15.00;;;9.32;;
59585;SDS011;45408;52.686;7.310;2024-03-07T04:27:28;16.92;;;10.13;;
59585;SDS011;45408;52.686;7.310;2024-03-07T04:29:55;21.05;;;10.55;;
59585;SDS011;45408;52.686;7.310;2024-03-07T04:32:22;15.38;;;9.23;;
59585;SDS011;45408;52.686;7.310;2024-03-07T04:34:49;18.95;;;10.93;;
59585;SDS011;45408;52.686;7.310;2024-03-07T04:37:16;22.20;;;10.20;;
59585;SDS011;45408;52.686;7.310;2024-03-07T04:39:43;22.33;;;10.73;;
59585;SDS011;45408;52.686;7.310;2024-03-07T04:42:09;17.85;;;10.40;;
59585;SDS011;45408;52.686;7.310;2024-03-07T04:44:36;17.65;;;10.38;;
59585;SDS011;45408;52.686;7.310;2024-03-07T04:47:03;19.00;;;9.57;;
59585;SDS011;45408;52.686;7.310;2024-03-07T04:49:31;18.60;;;9.85;;
59585;SDS011;45408;52.686;7.310;2024-03-07T04:51:58;19.67;;;8.93;;
59585;SDS011;45408;52.686;7.310;2024-03-07T04:54:27;16.83;;;9.13;;
59585;SDS011;45408;52.686;7.310;2024-03-07T04:56:54;16.38;;;9.55;;
59585;SDS011;45408;52.686;7.310;2024-03-07T04:59:22;17.17;;;10.25;;
59585;SDS011;45408;52.686;7.310;2024-03-07T05:01:49;21.85;;;9.85;;
59585;SDS011;45408;52.686;7.310;2024-03-07T05:04:16;18.75;;;10.80;;
59585;SDS011;45408;52.686;7.310;2024-03-07T05:06:43;19.35;;;10.15;;
59585;SDS011;45408;52.686;7.310;2024-03-07T05:09:13;20.88;;;10.98;;
59585;SDS011;45408;52.686;7.310;2024-03-07T05:11:51;17.30;;;9.98;;
59585;SDS011;45408;52.686;7.310;2024-03-07T05:14:18;18.60;;;10.05;;
59585;SDS011;45408;52.686;7.310;2024-03-07T05:16:45;23.48;;;9.85;;
59585;SDS011;45408;52.686;7.310;2024-03-07T05:19:12;16.25;;;9.65;;
59585;SDS011;45408;52.686;7.310;2024-03-07T05:21:38;17.27;;;9.88;;
59585;SDS011;45408;52.686;7.310;2024-03-07T05:24:07;17.33;;;10.23;;
59585;SDS011;45408;52.686;7.310;2024-03-07T05:26:37;19.02;;;10.15;;
59585;SDS011;45408;52.686;7.310;2024-03-07T05:29:07;18.25;;;10.25;;
59585;SDS011;45408;52.686;7.310;2024-03-07T05:31:36;19.20;;;10.80;;
59585;SDS011;45408;52.686;7.310;2024-03-07T05:34:04;18.15;;;10.57;;
59585;SDS011;45408;52.686;7.310;2024-03-07T05:36:34;22.63;;;12.27;;
59585;SDS011;45408;52.686;7.310;2024-03-07T05:39:02;18.70;;;10.90;;
59585;SDS011;45408;52.686;7.310;2024-03-07T05:41:40;16.33;;;10.52;;
59585;SDS011;45408;52.686;7.310;2024-03-07T05:44:08;17.17;;;10.65;;
59585;SDS011;45408;52.686;7.310;2024-03-07T05:46:41;18.80;;;11.48;;
59585;SDS011;45408;52.686;7.310;2024-03-07T05:49:12;17.33;;;10.38;;
59585;SDS011;45408;52.686;7.310;2024-03-07T05:51:39;16.17;;;10.30;;
59585;SDS011;45408;52.686;7.310;2024-03-07T05:54:08;19.38;;;11.15;;
59585;SDS011;45408;52.686;7.310;2024-03-07T05:56:35;17.58;;;10.60;;
59585;SDS011;45408;52.686;7.310;2024-03-07T05:59:02;20.17;;;10.40;;
59585;SDS011;45408;52.686;7.310;2024-03-07T06:01:33;18.67;;;10.48;;
59585;SDS011;45408;52.686;7.310;2024-03-07T06:04:01;17.83;;;11.15;;
59585;SDS011;45408;52.686;7.310;2024-03-07T06:06:28;17.67;;;9.95;;
59585;SDS011;45408;52.686;7.310;2024-03-07T06:09:01;18.35;;;10.60;;
59585;SDS011;45408;52.686;7.310;2024-03-07T06:11:34;18.60;;;10.95;;
59585;SDS011;45408;52.686;7.310;2024-03-07T06:14:02;17.98;;;10.80;;
59585;SDS011;45408;52.686;7.310;2024-03-07T06:16:34;19.40;;;10.70;;
59585;SDS011;45408;52.686;7.310;2024-03-07T06:19:02;20.20;;;11.48;;
59585;SDS011;45408;52.686;7.310;2024-03-07T06:21:29;20.33;;;10.77;;
59585;SDS011;45408;52.686;7.310;2024-03-07T06:23:59;21.98;;;11.73;;
59585;SDS011;45408;52.686;7.310;2024-03-07T06:26:30;19.83;;;11.15;;
59585;SDS011;45408;52.686;7.310;2024-03-07T06:29:16;21.60;;;12.63;;
59585;SDS011;45408;52.686;7.310;2024-03-07T06:31:44;26.88;;;11.82;;
59585;SDS011;45408;52.686;7.310;2024-03-07T06:34:14;24.65;;;11.43;;
59585;SDS011;45408;52.686;7.310;2024-03-07T06:36:40;20.75;;;12.40;;
59585;SDS011;45408;52.686;7.310;2024-03-07T06:39:07;21.63;;;11.75;;
59585;SDS011;45408;52.686;7.310;2024-03-07T06:41:36;20.10;;;11.93;;
59585;SDS011;45408;52.686;7.310;2024-03-07T06:44:03;22.77;;;13.38;;
59585;SDS011;45408;52.686;7.310;2024-03-07T06:46:30;20.58;;;12.25;;
59585;SDS011;45408;52.686;7.310;2024-03-07T06:48:58;19.45;;;11.38;;
59585;SDS011;45408;52.686;7.310;2024-03-07T06:51:25;19.25;;;11.27;;
59585;SDS011;45408;52.686;7.310;2024-03-07T06:53:52;22.63;;;13.30;;
59585;SDS011;45408;52.686;7.310;2024-03-07T06:56:18;24.40;;;13.20;;
59585;SDS011;45408;52.686;7.310;2024-03-07T06:58:45;23.15;;;12.95;;
59585;SDS011;45408;52.686;7.310;2024-03-07T07:01:12;18.05;;;11.75;;
59585;SDS011;45408;52.686;7.310;2024-03-07T07:03:42;23.75;;;13.30;;
59585;SDS011;45408;52.686;7.310;2024-03-07T07:06:13;21.98;;;12.07;;
59585;SDS011;45408;52.686;7.310;2024-03-07T07:08:40;22.90;;;12.00;;
59585;SDS011;45408;52.686;7.310;2024-03-07T07:11:06;21.95;;;13.45;;
59585;SDS011;45408;52.686;7.310;2024-03-07T07:13:33;22.58;;;13.43;;
59585;SDS011;45408;52.686;7.310;2024-03-07T07:15:59;24.67;;;13.85;;
59585;SDS011;45408;52.686;7.310;2024-03-07T07:18:26;31.27;;;15.75;;
59585;SDS011;45408;52.686;7.310;2024-03-07T07:20:53;25.73;;;13.18;;
59585;SDS011;45408;52.686;7.310;2024-03-07T07:23:20;30.02;;;15.07;;
59585;SDS011;45408;52.686;7.310;2024-03-07T07:25:47;25.13;;;13.23;;
59585;SDS011;45408;52.686;7.310;2024-03-07T07:28:13;25.80;;;12.85;;
59585;SDS011;45408;52.686;7.310;2024-03-07T07:30:41;27.48;;;13.82;;
59585;SDS011;45408;52.686;7.310;2024-03-07T07:33:11;26.95;;;14.82;;
59585;SDS011;45408;52.686;7.310;2024-03-07T07:35:38;31.48;;;14.77;;
59585;SDS011;45408;52.686;7.310;2024-03-07T07:38:05;27.65;;;15.02;;
59585;SDS011;45408;52.686;7.310;2024-03-07T07:40:33;29.93;;;16.00;;
59585;SDS011;45408;52.686;7.310;2024-03-07T07:42:59;27.80;;;14.93;;
59585;SDS011;45408;52.686;7.310;2024-03-07T07:45:27;37.35;;;16.67;;
59585;SDS011;45408;52.686;7.310;2024-03-07T07:47:54;25.92;;;12.18;;
59585;SDS011;45408;52.686;7.310;2024-03-07T07:50:22;26.15;;;13.50;;
59585;SDS011;45408;52.686;7.310;2024-03-07T07:55:17;24.95;;;12.65;;
59585;SDS011;45408;52.686;7.310;2024-03-07T07:57:44;23.63;;;11.82;;
59585;SDS011;45408;52.686;7.310;2024-03-07T08:00:15;28.67;;;14.35;;
59585;SDS011;45408;52.686;7.310;2024-03-07T08:02:58;20.80;;;10.82;;
59585;SDS011;45408;52.686;7.310;2024-03-07T08:05:29;22.52;;;11.82;;
59585;SDS011;45408;52.686;7.310;2024-03-07T08:08:00;21.38;;;11.68;;
59585;SDS011;45408;52.686;7.310;2024-03-07T08:10:36;27.40;;;12.75;;
59585;SDS011;45408;52.686;7.310;2024-03-07T08:13:04;20.70;;;11.48;;
59585;SDS011;45408;52.686;7.310;2024-03-07T08:15:40;25.65;;;14.70;;
59585;SDS011;45408;52.686;7.310;2024-03-07T08:18:08;27.35;;;14.00;;
59585;SDS011;45408;52.686;7.310;2024-03-07T08:20:38;27.05;;;14.43;;
59585;SDS011;45408;52.686;7.310;2024-03-07T08:23:07;22.48;;;12.48;;
59585;SDS011;45408;52.686;7.310;2024-03-07T08:25:33;27.95;;;14.68;;
59585;SDS011;45408;52.686;7.310;2024-03-07T08:28:00;27.35;;;13.88;;
59585;SDS011;45408;52.686;7.310;2024-03-07T08:30:27;32.15;;;14.85;;
59585;SDS011;45408;52.686;7.310;2024-03-07T08:32:55;18.25;;;10.48;;
59585;SDS011;45408;52.686;7.310;2024-03-07T08:35:23;23.80;;;13.25;;
59585;SDS011;45408;52.686;7.310;2024-03-07T08:37:53;26.83;;;14.02;;
59585;SDS011;45408;52.686;7.310;2024-03-07T08:40:22;24.63;;;13.70;;
59585;SDS011;45408;52.686;7.310;2024-03-07T08:42:54;23.35;;;13.25;;
59585;SDS011;45408;52.686;7.310;2024-03-07T08:45:21;24.83;;;12.70;;
59585;SDS011;45408;52.686;7.310;2024-03-07T08:47:48;22.58;;;12.68;;
59585;SDS011;45408;52.686;7.310;2024-03-07T08:50:16;27.23;;;13.30;;
59585;SDS011;45408;52.686;7.310;2024-03-07T08:52:47;23.65;;;12.65;;
59585;SDS011;45408;52.686;7.310;2024-03-07T08:55:15;24.60;;;13.43;;
59585;SDS011;45408;52.686;7.310;2024-03-07T08:57:43;23.55;;;13.43;;
59585;SDS011;45408;52.686;7.310;2024-03-07T09:00:13;26.52;;;14.02;;
59585;SDS011;45408;52.686;7.310;2024-03-07T09:02:53;28.13;;;13.98;;
59585;SDS011;45408;52.686;7.310;2024-03-07T09:05:28;20.73;;;12.68;;
59585;SDS011;45408;52.686;7.310;2024-03-07T09:07:56;22.08;;;11.98;;
59585;SDS011;45408;52.686;7.310;2024-03-07T09:10:22;23.85;;;13.00;;
59585;SDS011;45408;52.686;7.310;2024-03-07T09:12:51;22.17;;;13.13;;
59585;SDS011;45408;52.686;7.310;2024-03-07T09:15:19;23.52;;;13.38;;
59585;SDS011;45408;52.686;7.310;2024-03-07T09:17:48;23.40;;;13.40;;
59585;SDS011;45408;52.686;7.310;2024-03-07T09:20:15;25.05;;;14.23;;
59585;SDS011;45408;52.686;7.310;2024-03-07T09:22:42;23.48;;;12.80;;
59585;SDS011;45408;52.686;7.310;2024-03-07T09:25:09;24.13;;;12.75;;
59585;SDS011;45408;52.686;7.310;2024-03-07T09:27:36;19.42;;;11.35;;
59585;SDS011;45408;52.686;7.310;2024-03-07T09:30:04;22.25;;;12.15;;
59585;SDS011;45408;52.686;7.310;2024-03-07T09:32:31;23.35;;;13.10;;
59585;SDS011;45408;52.686;7.310;2024-03-07T09:35:00;21.98;;;13.30;;
59585;SDS011;45408;52.686;7.310;2024-03-07T09:37:27;26.65;;;14.43;;
59585;SDS011;45408;52.686;7.310;2024-03-07T09:39:54;27.08;;;14.52;;
59585;SDS011;45408;52.686;7.310;2024-03-07T09:42:20;26.92;;;14.15;;
59585;SDS011;45408;52.686;7.310;2024-03-07T09:44:47;26.08;;;13.35;;
59585;SDS011;45408;52.686;7.310;2024-03-07T09:47:15;26.13;;;14.82;;
59585;SDS011;45408;52.686;7.310;2024-03-07T09:49:41;25.95;;;14.20;;
59585;SDS011;45408;52.686;7.310;2024-03-07T09:52:08;21.02;;;12.18;;
59585;SDS011;45408;52.686;7.310;2024-03-07T09:54:38;25.17;;;13.20;;
59585;SDS011;45408;52.686;7.310;2024-03-07T09:57:06;22.27;;;12.57;;
59585;SDS011;45408;52.686;7.310;2024-03-07T09:59:34;25.77;;;14.55;;
59585;SDS011;45408;52.686;7.310;2024-03-07T10:02:06;23.98;;;12.45;;
59585;SDS011;45408;52.686;7.310;2024-03-07T10:07:11;19.98;;;11.65;;
59585;SDS011;45408;52.686;7.310;2024-03-07T10:09:40;23.63;;;11.82;;
59585;SDS011;45408;52.686;7.310;2024-03-07T10:12:08;22.25;;;11.13;;
59585;SDS011;45408;52.686;7.310;2024-03-07T10:14:48;21.52;;;11.25;;
59585;SDS011;45408;52.686;7.310;2024-03-07T10:17:17;24.65;;;12.23;;
59585;SDS011;45408;52.686;7.310;2024-03-07T10:19:47;21.08;;;12.20;;
59585;SDS011;45408;52.686;7.310;2024-03-07T10:22:17;23.35;;;12.90;;
59585;SDS011;45408;52.686;7.310;2024-03-07T10:24:51;22.92;;;13.27;;
59585;SDS011;45408;52.686;7.310;2024-03-07T10:27:19;28.08;;;13.07;;
59585;SDS011;45408;52.686;7.310;2024-03-07T10:29:47;24.52;;;14.18;;
59585;SDS011;45408;52.686;7.310;2024-03-07T10:34:45;26.02;;;12.07;;
59585;SDS011;45408;52.686;7.310;2024-03-07T10:37:12;23.30;;;11.82;;
59585;SDS011;45408;52.686;7.310;2024-03-07T10:39:45;23.42;;;12.75;;
59585;SDS011;45408;52.686;7.310;2024-03-07T10:42:18;25.02;;;13.65;;
59585;SDS011;45408;52.686;7.310;2024-03-07T10:44:46;22.52;;;12.57;;
59585;SDS011;45408;52.686;7.310;2024-03-07T10:47:17;29.73;;;13.02;;
59585;SDS011;45408;52.686;7.310;2024-03-07T10:49:50;25.58;;;13.15;;
59585;SDS011;45408;52.686;7.310;2024-03-07T10:52:28;31.17;;;15.43;;
59585;SDS011;45408;52.686;7.310;2024-03-07T10:55:12;28.52;;;13.45;;
59585;SDS011;45408;52.686;7.310;2024-03-07T11:00:21;32.55;;;14.55;;
59585;SDS011;45408;52.686;7.310;2024-03-07T11:03:05;32.88;;;14.43;;
59585;SDS011;45408;52.686;7.310;2024-03-07T11:05:35;30.25;;;14.80;;
59585;SDS011;45408;52.686;7.310;2024-03-07T11:08:02;29.95;;;13.40;;
59585;SDS011;45408;52.686;7.310;2024-03-07T11:10:39;32.05;;;15.00;;
59585;SDS011;45408;52.686;7.310;2024-03-07T11:13:07;30.38;;;14.32;;
59585;SDS011;45408;52.686;7.310;2024-03-07T11:15:36;34.25;;;15.70;;
59585;SDS011;45408;52.686;7.310;2024-03-07T11:18:03;31.80;;;12.48;;
59585;SDS011;45408;52.686;7.310;2024-03-07T11:20:37;35.90;;;15.30;;
59585;SDS011;45408;52.686;7.310;2024-03-07T11:26:01;43.10;;;17.30;;
59585;SDS011;45408;52.686;7.310;2024-03-07T11:28:29;40.03;;;16.73;;
59585;SDS011;45408;52.686;7.310;2024-03-07T11:31:06;39.00;;;15.40;;
59585;SDS011;45408;52.686;7.310;2024-03-07T11:34:12;35.83;;;17.35;;
59585;SDS011;45408;52.686;7.310;2024-03-07T11:36:42;43.45;;;16.48;;
59585;SDS011;45408;52.686;7.310;2024-03-07T11:39:38;40.63;;;17.45;;
59585;SDS011;45408;52.686;7.310;2024-03-07T11:42:25;36.35;;;15.38;;
59585;SDS011;45408;52.686;7.310;2024-03-07T11:44:54;37.95;;;14.40;;
59585;SDS011;45408;52.686;7.310;2024-03-07T11:47:24;33.88;;;15.60;;
59585;SDS011;45408;52.686;7.310;2024-03-07T11:49:55;35.03;;;15.10;;
59585;SDS011;45408;52.686;7.310;2024-03-07T11:52:24;48.22;;;17.80;;
59585;SDS011;45408;52.686;7.310;2024-03-07T11:54:50;43.83;;;16.98;;
59585;SDS011;45408;52.686;7.310;2024-03-07T11:57:18;40.80;;;16.52;;
59585;SDS011;45408;52.686;7.310;2024-03-07T11:59:47;45.45;;;17.63;;
59585;SDS011;45408;52.686;7.310;2024-03-07T12:02:18;40.05;;;16.88;;
59585;SDS011;45408;52.686;7.310;2024-03-07T12:04:49;47.25;;;17.27;;
59585;SDS011;45408;52.686;7.310;2024-03-07T12:07:16;47.83;;;17.05;;
59585;SDS011;45408;52.686;7.310;2024-03-07T12:09:49;45.88;;;18.95;;
59585;SDS011;45408;52.686;7.310;2024-03-07T12:12:22;44.67;;;16.98;;
59585;SDS011;45408;52.686;7.310;2024-03-07T12:14:50;48.42;;;17.98;;
59585;SDS011;45408;52.686;7.310;2024-03-07T12:17:20;42.45;;;16.73;;
59585;SDS011;45408;52.686;7.310;2024-03-07T12:19:48;47.55;;;18.27;;
59585;SDS011;45408;52.686;7.310;2024-03-07T12:22:20;49.75;;;19.38;;
59585;SDS011;45408;52.686;7.310;2024-03-07T12:25:01;46.15;;;18.02;;
59585;SDS011;45408;52.686;7.310;2024-03-07T12:27:29;49.38;;;17.90;;
59585;SDS011;45408;52.686;7.310;2024-03-07T12:29:58;45.15;;;19.10;;
59585;SDS011;45408;52.686;7.310;2024-03-07T12:32:28;47.40;;;18.63;;
59585;SDS011;45408;52.686;7.310;2024-03-07T12:34:55;42.22;;;18.90;;
59585;SDS011;45408;52.686;7.310;2024-03-07T12:37:21;42.40;;;16.88;;
59585;SDS011;45408;52.686;7.310;2024-03-07T12:39:53;39.35;;;17.17;;
59585;SDS011;45408;52.686;7.310;2024-03-07T12:42:27;37.10;;;15.90;;
59585;SDS011;45408;52.686;7.310;2024-03-07T12:44:57;42.47;;;18.17;;
59585;SDS011;45408;52.686;7.310;2024-03-07T12:49:52;39.25;;;14.82;;
59585;SDS011;45408;52.686;7.310;2024-03-07T12:52:18;39.78;;;15.85;;
59585;SDS011;45408;52.686;7.310;2024-03-07T12:54:45;36.35;;;17.13;;
59585;SDS011;45408;52.686;7.310;2024-03-07T12:57:14;32.95;;;15.27;;
59585;SDS011;45408;52.686;7.310;2024-03-07T12:59:40;35.72;;;14.88;;
59585;SDS011;45408;52.686;7.310;2024-03-07T13:02:08;32.97;;;15.55;;
59585;SDS011;45408;52.686;7.310;2024-03-07T13:04:35;31.90;;;14.10;;
59585;SDS011;45408;52.686;7.310;2024-03-07T13:07:09;30.17;;;13.88;;
59585;SDS011;45408;52.686;7.310;2024-03-07T13:09:36;30.08;;;12.57;;
59585;SDS011;45408;52.686;7.310;2024-03-07T13:12:04;26.93;;;11.63;;
59585;SDS011;45408;52.686;7.310;2024-03-07T13:14:36;29.90;;;12.98;;
59585;SDS011;45408;52.686;7.310;2024-03-07T13:17:02;27.27;;;12.25;;
59585;SDS011;45408;52.686;7.310;2024-03-07T13:19:30;28.77;;;12.23;;
59585;SDS011;45408;52.686;7.310;2024-03-07T13:21:57;32.28;;;14.48;;
59585;SDS011;45408;52.686;7.310;2024-03-07T13:24:24;27.27;;;12.15;;
59585;SDS011;45408;52.686;7.310;2024-03-07T13:26:51;27.52;;;13.20;;
59585;SDS011;45408;52.686;7.310;2024-03-07T13:29:19;22.05;;;11.10;;
59585;SDS011;45408;52.686;7.310;2024-03-07T13:31:51;28.77;;;12.48;;
59585;SDS011;45408;52.686;7.310;2024-03-07T13:34:18;25.60;;;11.13;;
59585;SDS011;45408;52.686;7.310;2024-03-07T13:36:44;24.25;;;12.63;;
59585;SDS011;45408;52.686;7.310;2024-03-07T13:39:12;22.77;;;11.98;;
59585;SDS011;45408;52.686;7.310;2024-03-07T13:41:41;26.88;;;11.93;;
59585;SDS011;45408;52.686;7.310;2024-03-07T13:44:08;22.25;;;11.55;;
59585;SDS011;45408;52.686;7.310;2024-03-07T13:46:34;23.35;;;11.88;;
59585;SDS011;45408;52.686;7.310;2024-03-07T13:49:01;23.83;;;11.52;;
59585;SDS011;45408;52.686;7.310;2024-03-07T13:51:39;23.38;;;12.35;;
59585;SDS011;45408;52.686;7.310;2024-03-07T13:54:19;24.52;;;10.82;;
59585;SDS011;45408;52.686;7.310;2024-03-07T14:08:45;23.05;;;11.55;;
59585;SDS011;45408;52.686;7.310;2024-03-07T14:25:51;27.75;;;12.82;;
59585;SDS011;45408;52.686;7.310;2024-03-07T14:31:06;26.88;;;11.80;;
59585;SDS011;45408;52.686;7.310;2024-03-07T14:36:37;30.58;;;13.38;;
59585;SDS011;45408;52.686;7.310;2024-03-07T14:39:06;26.98;;;12.07;;
59585;SDS011;45408;52.686;7.310;2024-03-07T14:41:45;28.77;;;12.98;;
59585;SDS011;45408;52.686;7.310;2024-03-07T14:44:15;30.63;;;12.68;;
59585;SDS011;45408;52.686;7.310;2024-03-07T14:46:42;22.90;;;12.27;;
59585;SDS011;45408;52.686;7.310;2024-03-07T14:49:14;21.95;;;11.70;;
59585;SDS011;45408;52.686;7.310;2024-03-07T14:51:42;23.15;;;11.70;;
59585;SDS011;45408;52.686;7.310;2024-03-07T14:54:23;22.98;;;11.13;;
59585;SDS011;45408;52.686;7.310;2024-03-07T14:56:50;22.67;;;10.25;;
59585;SDS011;45408;52.686;7.310;2024-03-07T14:59:16;22.70;;;11.43;;
59585;SDS011;45408;52.686;7.310;2024-03-07T15:01:44;23.65;;;11.30;;
59585;SDS011;45408;52.686;7.310;2024-03-07T15:04:10;25.40;;;12.43;;
59585;SDS011;45408;52.686;7.310;2024-03-07T15:06:38;21.95;;;11.07;;
59585;SDS011;45408;52.686;7.310;2024-03-07T15:09:05;24.83;;;11.93;;
59585;SDS011;45408;52.686;7.310;2024-03-07T15:11:36;24.88;;;12.07;;
59585;SDS011;45408;52.686;7.310;2024-03-07T15:14:07;25.75;;;12.52;;
59585;SDS011;45408;52.686;7.310;2024-03-07T15:16:37;27.80;;;11.90;;
59585;SDS011;45408;52.686;7.310;2024-03-07T15:19:05;25.65;;;11.40;;
59585;SDS011;45408;52.686;7.310;2024-03-07T15:21:36;20.00;;;10.52;;